Regina, New Mexico
Current Conditions -  °F | °C
As of 1:35 AM on Sunday 23 Nov 2014 (Local Time) from KLAM Reporting Station
Clear Clear  
Wind Chill: 33°   Ceiling: Unl
Heat Index: 40°   Visibility: 10mi
Dew Point: 18°   Wind: 14mph
Humidity: 41%   Direction: 280°W
Pressure: 29.78"   Gusts: 23mph
Location:  36.18°N, 106.96°W
Report Text: KLAM 230835Z AUTO 28012G20KT 10SM CLR 05/M08 A2978 RMK AO2 T00471077
Loading
Personal Weather Stations






























Interactive Weather Map New forecast layout! Learn more

10-Day Weather Forecast

Advertisements
Track Severe Weather on mobile